Racecast

Lydia Edwards

Vacaville (CA) · 12 · MELCA D2SJS D2YOLO · Compare head to head

Athlete rating 98.0 2015 XC season
Best race 110.7 TF
Races 45
Seasons 5 2012 — 2016

RankedNation #85228·CA #11359·CA D2 #4914·SJS #1249·SJS D2 #284·MEL #36·Team #62 ?

Speed rating — all races

Cross Country

XC speed rating

2015 XC 96.5

Vacaville (CA) · Grade 12

Date Meet Event Result Place Rating Difficulty PR/SR Flags
2015-11-07 Calaveras County Fairgrounds 4828m 26:54 117th · 9th on team 94.7 +0.065 ★CR CSR
2015-10-28 Lagoon Valley Park 4828m 25:45.5 49th · 19th on team 96.8 +0.056 ★PR ★CR SR CSR
2015-10-03 Del Oro HS 4000m 19:31 27th · 3rd on team 102.6 +0.031 SR CSR RSR
2015-09-12 Hidden Valley Park 3218m 16:51.8 44th · 3rd on team 96.3 +0.075 SR CSR RSR
2015-09-05 Lagoon Valley Park 3218m 18:37 68th · 8th on team 92.1 +0.121 SR CSR RSR

2014 XC 102.9

Vacaville (CA) · Grade 11

Date Meet Event Result Place Rating Difficulty PR/SR Flags
2014-10-25 Mt. San Antonio College 4715m 23:07.4 42nd · 2nd on team 108.3 +0.077 ★PR ★CR SR CSR RSR
2014-10-18 Willow Hills Reservoir Course 5000m 25:16.2 121st · 6th on team 102.5 +0.045 ★PR ★CR SR CSR
2014-10-04 Del Oro HS 4000m 18:40 65th · 5th on team 107.5 +0.031 SR CSR RSR
2014-10-01 Alston Park 4988m 26:38 49th · 16th on team 92.9 +0.004 ★PR ★CR SR CSR
2014-09-13 Hidden Valley Park 3218m 15:56 110th · 5th on team 103.4 +0.075 ★CR SR CSR RSR

2013 XC 104.0

Vacaville (CA) · Grade 10

Date Meet Event Result Place Rating Difficulty PR/SR Flags
2013-10-30 Lagoon Valley Park 3218m 15:48.8 16th · 5th on team 107.6 +0.121 ★PR ★CR SR CSR RSR
2013-10-26 Mt. San Antonio College 4715m 24:31 51st · 3rd on team 102.2 +0.077 PR CR SR CSR
2013-10-19 Willow Hills Reservoir Course 3400m 16:12.7 60th · 2nd on team 104.6 +0.043 ★PR ★CR SR CSR
2013-10-05 Del Oro HS 4000m 18:40 50th · 1st on team 106.8 +0.031 PR CR SR CSR RSR
2013-09-21 Muller Vineyards 5000m 25:49 72nd · 8th on team 102.4 +0.081 PR ★CR SR CSR RSR
2013-09-07 Lagoon Valley Park 3218m 17:05 89th · 5th on team 100.5 +0.121 CR SR CSR RSR

2012 XC 102.1

Vacaville (CA) · Grade 9

Date Meet Event Result Place Rating Difficulty PR/SR Flags
2012-11-03 Calaveras County Fairgrounds 3218m 16:20 69th · 4th on team 102.0 +0.084 PR ★CR SR CSR
2012-10-13 Willow Hills Reservoir Course 3400m 16:35.2 90th · 4th on team 102.2 +0.043 PR CR R SR CSR RSR

Track & Field

TF speed rating

2016 TF

Vacaville (CA) · Grade 12

Date Meet Event Result Place Rating Difficulty PR/SR Flags
2016-05-12 MEL Championships 400m 1:13.86 18th · 3rd on team -0.010
2016-04-23 Halden Invitational 200m 30.44 21st · 2nd on team -0.026
2016-04-23 Halden Invitational 400m 1:12.81 20th · 2nd on team -0.026
2016-04-16 Bella Vista Bronco Invitational 200m 30.2 42nd · 2nd on team -0.029 SR
2016-03-12 2nd Annual Granite Bay Sturgeon Invitational 200m 31.3 32nd · 2nd on team -0.027 SR
2016-03-12 2nd Annual Granite Bay Sturgeon Invitational 100m 15.75 30th · 2nd on team -0.027
2016-02-27 Capital Classic Relays 100m 14.51 19th · 2nd on team -0.020 SR
2016-02-27 Capital Classic Relays 400m 1:12.28 19th · 2nd on team -0.020 SR

2015 TF

Vacaville (CA) · Grade 11

Date Meet Event Result Place Rating Difficulty PR/SR Flags
2015-04-25 Bella Vista Bronco Invitational 100m 14.41 31st · 1st on team -0.036 ★PR SR
2015-04-25 Bella Vista Bronco Invitational 200m 29.64 31st · 1st on team -0.036 ★PR SR
2015-03-14 Sturgeon Invitational (formerly the King Gilbert Invite) 100m 14.77 23rd · 2nd on team -0.027 SR
2015-03-14 Sturgeon Invitational (formerly the King Gilbert Invite) 200m 30.83 19th · 2nd on team -0.027 SR

2014 TF

Vacaville (CA) · Grade 10

Date Meet Event Result Place Rating Difficulty PR/SR Flags
2014-05-15 MEL League Championships 200m 31.11 4th · 1st on team -0.010
2014-05-15 MEL League Championships 100m 14.86 5th · 1st on team -0.010
2014-05-13 MEL Trials 200m 30.35 4th · 1st on team -0.010
2014-05-13 MEL Trials 100m 14.73 4th · 1st on team -0.010 PR SR
2014-03-15 Folsom Depth Charge 400m 1:11.14 17th · 2nd on team -0.020 ★PR SR
2014-03-15 Folsom Depth Charge 200m 30.24 10th · 1st on team -0.020 PR SR
2014-03-08 10th Annual CSUS Track Classic 400m 1:11.54 24th · 1st on team -0.032 PR SR
2014-03-08 10th Annual CSUS Track Classic 200m 30.81 27th · 2nd on team -0.032 PR SR
2014-03-01 Capital Classic Relays 200m 35.23 21st · 1st on team -0.033 PR SR

2013 TF 106.5

Vacaville (CA) · Grade 9

Date Meet Event Result Place Rating Difficulty PR/SR Flags
2013-05-09 MEL Championships 1600m 6:27.39 8th · 2nd on team 108.7 -0.010 ★PR R SR RSR
2013-05-09 MEL Championships 3200m 14:22.65 10th · 3rd on team 104.6 -0.010
2013-05-09 MEL Championships 800m 2:48.8 7th · 3rd on team 110.7 -0.010 ★PR ★R SR RSR
2013-05-07 Monticello Empire League Trials (SJ) 3200m 14:22.65 10th · 3rd on team 103.8 -0.010 R RSR
2013-05-07 Monticello Empire League Trials (SJ) 800m 2:51.97 9th · 3rd on team 108.3 -0.010 PR R SR RSR
2013-04-13 Bella Vista Bronco Invitational 3200m 14:19.38 25th · 2nd on team 102.8 -0.036 ★PR R SR RSR